Time;durP1;ratioP1;P1;durP2;ratioP2;P2;SDS_P1;SDS_P2;PMS_P1;PMS_P2;Temp;Humidity;BMP_temperature;BMP_pressure;BME280_temperature;BME280_humidity;BME280_pressure;Samples;Min_cycle;Max_cycle;Signal;HPM_P1;HPM_P2
2021/05/05 00:00:37;;;;;;;7.10;3.65;;;;;;;11.93;51.28;99379.66;5114734;28;20101;-77
2021/05/05 00:03:04;;;;;;;6.68;3.88;;;;;;;12.06;51.79;99395.53;5115059;28;20031;-79
2021/05/05 00:05:30;;;;;;;8.65;4.07;;;;;;;12.20;51.46;99402.47;5115066;28;20084;-78
2021/05/05 00:07:55;;;;;;;10.45;4.18;;;;;;;12.19;51.62;99396.28;5114985;28;20046;-79
2021/05/05 00:10:21;;;;;;;9.00;4.15;;;;;;;12.23;51.42;99396.88;5114630;28;20031;-80
2021/05/05 00:12:47;;;;;;;7.90;4.05;;;;;;;12.16;51.53;99390.31;5114465;28;20035;-79
2021/05/05 00:15:24;;;;;;;7.93;3.65;;;;;;;12.12;51.43;99383.53;5114896;28;20032;-79
2021/05/05 00:17:50;;;;;;;7.82;3.80;;;;;;;12.11;51.53;99376.47;5114664;28;20503;-83
2021/05/05 00:20:18;;;;;;;7.90;4.53;;;;;;;11.93;51.90;99352.91;5096225;28;20123;-83
2021/05/05 00:22:43;;;;;;;8.55;3.53;;;;;;;12.01;52.34;99377.22;5113696;28;20448;-82
2021/05/05 00:25:10;;;;;;;6.45;4.05;;;;;;;11.89;52.17;99355.97;5096502;28;20035;-81
2021/05/05 00:27:36;;;;;;;9.05;4.10;;;;;;;11.89;52.84;99378.19;5079123;28;20155;-82
2021/05/05 00:30:02;;;;;;;9.20;4.90;;;;;;;11.85;52.81;99368.72;5079328;28;20123;-82
2021/05/05 00:32:28;;;;;;;7.68;4.53;;;;;;;11.82;53.33;99358.28;5095944;28;20092;-82
2021/05/05 00:34:53;;;;;;;7.88;4.55;;;;;;;11.73;53.36;99362.50;5114339;28;20106;-82
2021/05/05 00:37:19;;;;;;;7.13;4.32;;;;;;;11.63;54.20;99366.84;5078803;28;20032;-82
2021/05/05 00:39:44;;;;;;;7.07;4.07;;;;;;;11.52;53.91;99353.50;5114709;28;20430;-82
2021/05/05 00:42:10;;;;;;;8.60;4.50;;;;;;;11.58;53.86;99352.16;5096831;28;20539;-82
2021/05/05 00:44:35;;;;;;;12.23;4.80;;;;;;;11.60;53.39;99352.91;5095952;28;20154;-78
2021/05/05 00:47:01;;;;;;;7.18;4.18;;;;;;;11.38;54.76;99357.22;5113927;28;20392;-79
2021/05/05 00:49:27;;;;;;;9.45;4.38;;;;;;;11.34;54.80;99355.78;5095706;28;20038;-79
2021/05/05 00:51:52;;;;;;;11.77;4.57;;;;;;;11.29;55.11;99357.09;5113783;28;20027;-78
2021/05/05 00:54:18;;;;;;;8.30;4.60;;;;;;;11.25;55.03;99353.81;5114031;28;20040;-78
2021/05/05 00:56:44;;;;;;;10.90;4.82;;;;;;;11.27;55.30;99346.53;5078966;28;20126;-77
2021/05/05 00:59:11;;;;;;;8.35;4.20;;;;;;;11.27;55.33;99351.03;5095883;28;20035;-77
2021/05/05 01:01:39;;;;;;;11.10;4.90;;;;;;;10.92;55.68;99303.06;5113752;28;20442;-76
2021/05/05 01:04:04;;;;;;;7.90;4.35;;;;;;;11.24;55.45;99341.44;5113972;28;20036;-75
2021/05/05 01:06:30;;;;;;;7.75;4.65;;;;;;;11.26;55.63;99346.66;5095199;28;20555;-75
2021/05/05 01:08:55;;;;;;;12.45;6.43;;;;;;;11.20;55.58;99334.66;5113915;28;20380;-75
2021/05/05 01:11:20;;;;;;;11.23;5.55;;;;;;;11.32;55.33;99341.72;5095515;28;20034;-76
2021/05/05 01:13:46;;;;;;;9.40;4.70;;;;;;;11.38;54.89;99335.88;5113648;28;20031;-75
2021/05/05 01:16:15;;;;;;;7.63;4.00;;;;;;;11.35;55.08;99330.78;5095253;28;20484;-77
2021/05/05 01:18:42;;;;;;;8.38;4.15;;;;;;;11.33;55.23;99329.19;5113658;28;20047;-77
2021/05/05 01:21:08;;;;;;;8.60;4.28;;;;;;;11.27;55.41;99325.19;5113763;28;20036;-77
2021/05/05 01:23:33;;;;;;;8.63;4.07;;;;;;;11.36;55.27;99328.94;5095420;28;20388;-76
2021/05/05 01:25:59;;;;;;;11.45;5.55;;;;;;;11.37;55.10;99317.31;5113352;28;20032;-76
2021/05/05 01:28:24;;;;;;;11.07;4.97;;;;;;;11.17;55.33;99297.50;5113331;28;20035;-75
2021/05/05 01:30:51;;;;;;;7.38;4.40;;;;;;;11.20;55.60;99326.66;5095504;28;20038;-76
2021/05/05 01:33:17;;;;;;;9.32;5.30;;;;;;;11.28;55.10;99329.53;5096586;28;20358;-75
2021/05/05 01:35:45;;;;;;;9.45;4.75;;;;;;;11.25;55.08;99328.94;5099184;28;20032;-80
2021/05/05 01:38:11;;;;;;;10.70;5.13;;;;;;;11.13;55.32;99328.94;5099470;28;20024;-76
2021/05/05 01:40:38;;;;;;;9.85;4.95;;;;;;;10.96;55.96;99328.50;5099265;28;20036;-76
2021/05/05 01:43:05;;;;;;;9.10;5.15;;;;;;;10.70;56.87;99320.66;5099702;28;20032;-76
2021/05/05 01:45:31;;;;;;;9.77;5.07;;;;;;;10.57;57.30;99322.56;5117048;28;20388;-76
2021/05/05 01:48:02;;;;;;;9.15;4.95;;;;;;;10.50;57.65;99313.31;5099431;28;20114;-77
2021/05/05 01:50:28;;;;;;;11.23;5.40;;;;;;;10.48;58.21;99318.75;5117290;28;20176;-77
2021/05/05 01:52:54;;;;;;;8.95;4.90;;;;;;;10.50;58.12;99313.31;5099362;28;20452;-77
2021/05/05 01:55:21;;;;;;;9.43;4.97;;;;;;;10.44;58.62;99311.13;5099629;28;20118;-77
2021/05/05 01:57:46;;;;;;;12.30;4.68;;;;;;;10.50;58.00;99310.63;5117184;28;20119;-77
2021/05/05 02:00:26;;;;;;;6.75;4.93;;;;;;;10.54;58.02;99314.81;5099374;28;20059;-77
2021/05/05 02:02:52;;;;;;;9.43;4.72;;;;;;;10.47;58.34;99310.88;5117674;28;20024;-77
2021/05/05 02:05:18;;;;;;;9.07;4.60;;;;;;;10.42;58.55;99313.91;5082231;28;20357;-77
2021/05/05 02:07:44;;;;;;;8.32;4.75;;;;;;;10.19;58.41;99272.06;5098702;28;20036;-81
2021/05/05 02:10:13;;;;;;;10.45;4.35;;;;;;;10.40;58.85;99318.47;5099381;28;20032;-77
2021/05/05 02:12:39;;;;;;;10.02;4.97;;;;;;;10.40;58.63;99310.47;5116867;28;20036;-78
2021/05/05 02:15:06;;;;;;;11.63;4.88;;;;;;;10.21;58.90;99291.44;5117294;28;20036;-77
2021/05/05 02:17:32;;;;;;;8.40;4.55;;;;;;;10.35;58.74;99307.31;5116410;28;20051;-78
2021/05/05 02:19:58;;;;;;;10.40;5.13;;;;;;;10.41;57.87;99280.19;5098681;28;20538;-79
2021/05/05 02:22:23;;;;;;;11.52;5.18;;;;;;;10.52;58.13;99298.91;5116836;28;20049;-80
2021/05/05 02:24:49;;;;;;;12.98;4.45;;;;;;;10.48;58.17;99296.59;5098839;28;20028;-79
2021/05/05 02:27:15;;;;;;;8.60;4.50;;;;;;;10.31;58.25;99273.84;5116605;28;20511;-79
2021/05/05 02:29:41;;;;;;;8.60;4.80;;;;;;;10.29;58.41;99276.63;5116518;28;20032;-79
2021/05/05 02:32:15;;;;;;;13.23;4.57;;;;;;;9.82;59.17;99224.16;5116570;28;20063;-79
2021/05/05 02:34:40;;;;;;;10.98;4.75;;;;;;;10.05;59.77;99289.06;5116263;28;20024;-79
2021/05/05 02:37:09;;;;;;;12.13;4.82;;;;;;;10.07;59.62;99292.47;5116602;28;20039;-80
2021/05/05 02:39:39;;;;;;;12.13;5.00;;;;;;;10.09;59.67;99298.53;5116510;28;20032;-76
2021/05/05 02:42:08;;;;;;;11.05;5.07;;;;;;;9.98;59.58;99285.16;5098361;28;20023;-75
2021/05/05 02:44:34;;;;;;;13.95;4.93;;;;;;;10.19;59.08;99291.56;5115305;28;20151;-77
2021/05/05 02:47:02;;;;;;;9.70;4.55;;;;;;;10.26;58.42;99284.84;5064700;28;20039;-76
2021/05/05 02:49:28;;;;;;;12.95;4.72;;;;;;;10.09;58.73;99273.69;5116239;28;20228;-79
2021/05/05 02:51:53;;;;;;;10.40;4.50;;;;;;;10.18;58.57;99291.69;5116813;28;20039;-78
2021/05/05 02:54:19;;;;;;;12.32;5.25;;;;;;;10.17;58.47;99284.66;5116136;28;20040;-78
2021/05/05 02:56:44;;;;;;;11.13;4.75;;;;;;;10.08;58.82;99288.84;5097926;28;20027;-78
2021/05/05 02:59:10;;;;;;;11.82;4.60;;;;;;;10.00;58.65;99259.25;5098043;28;20034;-78
2021/05/05 03:01:35;;;;;;;13.48;5.40;;;;;;;9.96;59.22;99277.28;5080781;28;20059;-77
2021/05/05 03:04:01;;;;;;;13.88;4.95;;;;;;;9.91;59.59;99273.22;5097926;28;20039;-78
2021/05/05 03:06:27;;;;;;;10.85;5.43;;;;;;;9.92;59.58;99274.94;5097596;28;20038;-78
2021/05/05 03:08:53;;;;;;;13.88;5.13;;;;;;;9.84;59.82;99271.97;5081282;28;20039;-78
2021/05/05 03:11:18;;;;;;;13.57;5.18;;;;;;;9.80;60.25;99275.81;5097969;28;20046;-78
2021/05/05 03:13:44;;;;;;;12.77;4.93;;;;;;;9.96;59.65;99271.94;5097546;28;20381;-77
2021/05/05 03:16:09;;;;;;;13.13;5.03;;;;;;;9.83;59.98;99260.47;5080991;28;20400;-77
2021/05/05 03:18:35;;;;;;;11.88;5.00;;;;;;;9.91;60.15;99270.56;5115447;28;20063;-77
2021/05/05 03:21:00;;;;;;;19.27;5.05;;;;;;;9.85;60.38;99269.22;5115989;28;20027;-78
2021/05/05 03:23:27;;;;;;;12.65;5.13;;;;;;;9.89;60.35;99275.16;5097645;28;20027;-81
2021/05/05 03:25:53;;;;;;;11.98;4.90;;;;;;;9.62;60.58;99233.59;5116040;28;20473;-78
2021/05/05 03:28:18;;;;;;;15.55;5.13;;;;;;;9.90;60.09;99258.22;5097459;28;20088;-78
2021/05/05 03:30:44;;;;;;;12.85;5.15;;;;;;;10.02;60.31;99278.63;5097181;28;20042;-81
2021/05/05 03:33:09;;;;;;;10.82;4.55;;;;;;;10.03;60.21;99275.00;5097299;28;20122;-79
2021/05/05 03:35:35;;;;;;;13.60;4.50;;;;;;;10.11;60.23;99272.63;5115019;28;20032;-81
2021/05/05 03:38:00;;;;;;;12.35;5.20;;;;;;;10.11;60.67;99283.28;5097656;28;20521;-77
2021/05/05 03:40:28;;;;;;;13.13;4.20;;;;;;;9.94;60.41;99231.25;5115620;28;20028;-74
2021/05/05 03:42:54;;;;;;;10.50;4.20;;;;;;;10.23;60.40;99277.09;5097713;28;20097;-75
2021/05/05 03:45:20;;;;;;;12.77;4.38;;;;;;;10.41;60.03;99276.66;5097361;28;20041;-75
2021/05/05 03:47:45;;;;;;;9.43;4.63;;;;;;;10.40;59.80;99273.16;5115149;28;20472;-75
2021/05/05 03:50:11;;;;;;;10.65;4.25;;;;;;;10.53;59.82;99273.09;5096956;28;20370;-73
2021/05/05 03:52:37;;;;;;;11.40;4.43;;;;;;;10.60;59.48;99264.50;5114889;28;20058;-74
2021/05/05 03:55:04;;;;;;;11.15;4.22;;;;;;;10.78;59.23;99272.91;5115153;28;20039;-74
2021/05/05 03:57:30;;;;;;;10.75;4.53;;;;;;;10.65;59.20;99245.50;5096200;28;20503;-73
2021/05/05 03:59:55;;;;;;;11.07;4.43;;;;;;;10.99;58.66;99274.91;5115055;28;20055;-74
2021/05/05 04:02:21;;;;;;;10.20;4.38;;;;;;;11.08;58.04;99268.84;5096784;28;20028;-75
2021/05/05 04:04:46;;;;;;;9.45;4.57;;;;;;;11.02;57.52;99232.00;5114708;28;20035;-75
2021/05/05 04:07:12;;;;;;;9.98;4.13;;;;;;;11.39;57.00;99249.50;5096888;28;20191;-75
2021/05/05 04:09:37;;;;;;;9.82;4.68;;;;;;;11.99;55.27;99253.56;5114575;28;20479;-76
2021/05/05 04:12:04;;;;;;;10.02;4.65;;;;;;;12.25;53.82;99253.22;5079791;28;20038;-76
2021/05/05 04:14:30;;;;;;;10.13;4.97;;;;;;;12.16;54.38;99248.63;5079456;28;20384;-76
2021/05/05 04:16:56;;;;;;;13.63;5.10;;;;;;;12.53;53.20;99244.59;5096182;28;20035;-75
2021/05/05 04:19:21;;;;;;;14.25;5.18;;;;;;;13.08;51.62;99245.25;5114600;28;20039;-76
2021/05/05 04:21:48;;;;;;;15.80;5.47;;;;;;;13.12;50.76;99227.94;5095795;28;20396;-74
2021/05/05 04:24:13;;;;;;;14.38;4.75;;;;;;;13.08;51.16;99226.50;5114633;28;20088;-77
2021/05/05 04:26:39;;;;;;;11.52;4.97;;;;;;;13.03;51.10;99206.50;5096100;28;20043;-78
2021/05/05 04:29:04;;;;;;;10.90;5.03;;;;;;;13.04;50.99;99227.75;5114718;28;20028;-77
2021/05/05 04:31:31;;;;;;;10.35;5.75;;;;;;;13.41;50.20;99233.47;5096329;28;20031;-78
2021/05/05 04:33:57;;;;;;;13.00;5.22;;;;;;;13.42;49.72;99215.56;5114292;28;20081;-80
2021/05/05 04:36:22;;;;;;;12.13;6.05;;;;;;;13.30;50.14;99232.69;5114442;28;20032;-80
2021/05/05 04:38:48;;;;;;;14.18;5.70;;;;;;;13.14;50.75;99239.38;5114384;28;20495;-76
2021/05/05 04:41:13;;;;;;;13.80;6.60;;;;;;;12.75;51.79;99237.44;5095917;28;20035;-75
2021/05/05 04:43:39;;;;;;;13.70;5.90;;;;;;;12.54;52.60;99229.38;5113360;28;20136;-78
2021/05/05 04:46:04;;;;;;;14.38;6.80;;;;;;;12.02;53.14;99165.09;5113845;28;20039;-77
2021/05/05 04:48:30;;;;;;;13.82;7.13;;;;;;;12.34;53.63;99233.72;5114020;28;20392;-78
2021/05/05 04:50:56;;;;;;;13.07;6.90;;;;;;;12.34;54.21;99244.44;5113842;28;20041;-74
2021/05/05 04:53:23;;;;;;;15.70;6.93;;;;;;;12.46;53.86;99248.78;5114011;28;20031;-74
2021/05/05 04:55:49;;;;;;;13.07;6.40;;;;;;;12.50;53.70;99234.16;5095386;28;20526;-75
2021/05/05 04:58:14;;;;;;;12.07;6.25;;;;;;;12.73;53.76;99250.09;5095410;28;20032;-75
2021/05/05 05:00:40;;;;;;;11.70;5.93;;;;;;;12.71;53.60;99236.84;5078333;28;20047;-73
2021/05/05 05:03:05;;;;;;;13.52;6.20;;;;;;;12.90;53.32;99249.50;5113795;28;20039;-73
2021/05/05 05:05:31;;;;;;;11.88;5.70;;;;;;;13.24;52.40;99238.59;5095563;28;20038;-77
2021/05/05 05:07:58;;;;;;;9.43;4.57;;;;;;;13.91;51.06;99251.41;5112566;28;20465;-78
2021/05/05 05:10:23;;;;;;;8.65;5.03;;;;;;;14.23;49.66;99243.97;5078931;28;20460;-77
2021/05/05 05:12:49;;;;;;;8.98;4.55;;;;;;;14.80;48.63;99252.19;5113209;28;20042;-80
2021/05/05 05:15:14;;;;;;;11.85;4.60;;;;;;;15.15;46.86;99193.31;5113866;28;20039;-79
2021/05/05 05:17:40;;;;;;;13.93;4.25;;;;;;;15.22;47.42;99249.94;5112879;28;20051;-76
2021/05/05 05:20:08;;;;;;;12.70;4.82;;;;;;;15.43;46.96;99247.03;5113420;28;20381;-77
2021/05/05 05:22:35;;;;;;;10.18;4.13;;;;;;;15.89;46.18;99245.31;5096233;28;20028;-77
2021/05/05 05:25:05;;;;;;;9.25;3.92;;;;;;;15.90;45.75;99237.09;5113514;28;20044;-77
2021/05/05 05:27:31;;;;;;;10.82;4.43;;;;;;;16.35;44.90;99240.75;5118806;28;20477;-77
2021/05/05 05:29:57;;;;;;;9.43;3.88;;;;;;;16.99;43.71;99240.50;5094926;28;20062;-77
2021/05/05 05:32:23;;;;;;;10.07;4.15;;;;;;;17.41;42.82;99245.13;5095408;28;20043;-71
2021/05/05 05:34:48;;;;;;;10.10;4.00;;;;;;;18.03;40.96;99243.06;5076699;28;20047;-72
2021/05/05 05:37:14;;;;;;;15.30;4.72;;;;;;;18.72;39.70;99241.88;5093252;28;20400;-80
2021/05/05 05:39:40;;;;;;;8.48;4.43;;;;;;;18.88;39.34;99236.44;5064247;28;20043;-74
2021/05/05 05:42:05;;;;;;;12.55;3.85;;;;;;;19.26;38.51;99244.84;5098180;28;20062;-74
2021/05/05 05:44:31;;;;;;;8.52;3.90;;;;;;;19.21;38.57;99244.53;5101352;28;20582;-77
2021/05/05 05:46:56;;;;;;;7.63;3.78;;;;;;;19.31;38.30;99247.88;5082506;28;20036;-72
2021/05/05 05:49:22;;;;;;;8.35;3.72;;;;;;;19.62;37.91;99239.88;5112109;28;20027;-70
2021/05/05 05:51:47;;;;;;;8.77;4.07;;;;;;;19.99;37.45;99239.22;5094077;28;20028;-73
2021/05/05 05:54:13;;;;;;;12.50;4.03;;;;;;;19.42;37.89;99190.72;5093826;28;20495;-76
2021/05/05 05:56:38;;;;;;;10.35;4.20;;;;;;;19.83;38.10;99239.28;5112048;28;20114;-73
2021/05/05 05:59:03;;;;;;;11.13;4.13;;;;;;;19.36;38.44;99215.75;5111934;28;20043;-74
2021/05/05 06:01:29;;;;;;;9.30;3.83;;;;;;;20.26;37.36;99237.00;5094472;28;20031;-74
2021/05/05 06:03:54;;;;;;;8.55;3.80;;;;;;;20.15;37.45;99245.53;5111875;28;20098;-80
2021/05/05 06:06:20;;;;;;;10.85;4.18;;;;;;;20.29;37.34;99247.50;5093906;28;20031;-74
2021/05/05 06:08:45;;;;;;;11.75;4.47;;;;;;;20.90;36.11;99240.28;5088164;28;20119;-73
2021/05/05 06:11:11;;;;;;;8.48;4.30;;;;;;;20.22;37.44;99241.94;5053186;28;20043;-74
2021/05/05 06:13:36;;;;;;;8.32;4.30;;;;;;;20.20;37.75;99243.16;5053209;28;20039;-73
2021/05/05 06:16:02;;;;;;;9.38;4.40;;;;;;;19.64;38.40;99232.41;5053024;28;20036;-74
2021/05/05 06:18:27;;;;;;;10.05;4.28;;;;;;;19.89;38.71;99235.88;5052997;28;20059;-72
2021/05/05 06:20:53;;;;;;;7.40;3.92;;;;;;;20.14;38.14;99233.03;5057040;28;20474;-75
2021/05/05 06:23:18;;;;;;;12.27;4.05;;;;;;;19.82;38.89;99221.34;5074449;28;20121;-71
2021/05/05 06:25:44;;;;;;;10.82;3.78;;;;;;;20.65;37.40;99214.41;5057598;28;20040;-70
2021/05/05 06:28:10;;;;;;;8.73;4.03;;;;;;;20.82;37.11;99215.97;5056713;28;20114;-75
2021/05/05 06:30:35;;;;;;;10.25;3.90;;;;;;;20.62;37.80;99217.50;5064032;28;20545;-72
2021/05/05 06:33:01;;;;;;;9.40;4.63;;;;;;;20.72;37.33;99210.78;5097245;28;20125;-70
2021/05/05 06:35:26;;;;;;;8.88;3.90;;;;;;;21.37;36.72;99210.19;5114893;28;20028;-71
2021/05/05 06:37:52;;;;;;;10.95;5.18;;;;;;;21.57;36.09;99204.19;5088086;28;20462;-75
2021/05/05 06:40:19;;;;;;;10.98;4.47;;;;;;;21.70;36.01;99194.34;5056944;28;20087;-72
2021/05/05 06:42:45;;;;;;;10.00;4.05;;;;;;;21.45;35.78;99152.28;5074845;28;20534;-75
2021/05/05 06:45:11;;;;;;;8.35;4.40;;;;;;;21.22;36.38;99152.34;5078156;28;20028;-76
2021/05/05 06:47:36;;;;;;;11.90;4.47;;;;;;;21.56;36.36;99192.50;5074584;28;20507;-80
2021/05/05 06:50:05;;;;;;;8.88;4.30;;;;;;;21.61;36.44;99190.06;5056892;28;20123;-81
2021/05/05 06:52:30;;;;;;;9.45;4.88;;;;;;;21.32;36.95;99179.22;5056945;28;20866;-75
2021/05/05 06:54:56;;;;;;;8.43;4.30;;;;;;;20.99;37.94;99179.56;5074246;28;20056;-75
2021/05/05 06:57:22;;;;;;;11.45;4.05;;;;;;;20.04;39.92;99183.69;5056666;28;20036;-83
2021/05/05 06:59:47;;;;;;;10.93;4.30;;;;;;;19.70;41.37;99176.78;5074802;28;20024;-80
2021/05/05 07:02:13;;;;;;;11.15;4.95;;;;;;;19.19;41.58;99141.09;5056492;28;20036;-79
2021/05/05 07:04:38;;;;;;;10.45;4.22;;;;;;;19.25;41.86;99180.13;5057162;28;20078;-78
2021/05/05 07:07:04;;;;;;;11.35;4.50;;;;;;;18.94;42.55;99170.06;5040211;28;20040;-78
2021/05/05 07:09:29;;;;;;;10.23;4.88;;;;;;;18.65;43.26;99165.22;5074016;28;20088;-79
2021/05/05 07:11:55;;;;;;;9.13;4.35;;;;;;;18.45;43.23;99140.41;5095005;28;20370;-77
2021/05/05 07:14:20;;;;;;;7.93;4.35;;;;;;;18.83;43.20;99186.66;5094307;28;20043;-77
2021/05/05 07:16:46;;;;;;;8.82;4.30;;;;;;;18.69;43.90;99182.75;5077051;28;20040;-77
2021/05/05 07:19:11;;;;;;;11.43;4.70;;;;;;;18.71;43.75;99191.53;5076738;28;20202;-77
2021/05/05 07:21:37;;;;;;;11.93;4.30;;;;;;;18.55;44.11;99172.63;5076451;28;20072;-76
2021/05/05 07:24:03;;;;;;;9.20;4.05;;;;;;;18.35;44.49;99163.19;5076415;28;20032;-76
2021/05/05 07:26:28;;;;;;;10.73;4.70;;;;;;;18.16;44.45;99162.47;5075980;28;20457;-77
2021/05/05 07:28:56;;;;;;;10.85;4.60;;;;;;;18.10;45.18;99182.03;5076492;28;20028;-75
2021/05/05 07:31:21;;;;;;;6.15;3.85;;;;;;;18.14;45.71;99177.97;5093793;28;20099;-78
2021/05/05 07:33:50;;;;;;;10.85;4.35;;;;;;;18.04;45.96;99171.88;5094166;28;20034;-73
2021/05/05 07:36:19;;;;;;;8.05;3.97;;;;;;;18.04;46.06;99182.69;5094101;28;20085;-79
2021/05/05 07:49:16;;;;;;;8.20;4.00;;;;;;;18.22;45.61;99153.69;5094157;28;20033;-79
2021/05/05 07:51:43;;;;;;;12.40;3.78;;;;;;;18.07;46.57;99155.38;5094112;28;20111;-74
2021/05/05 07:54:09;;;;;;;12.02;4.35;;;;;;;18.14;46.37;99167.19;5093870;28;20032;-77
2021/05/05 07:56:35;;;;;;;10.68;3.60;;;;;;;18.06;46.57;99153.72;5093988;28;20059;-77
2021/05/05 07:59:03;;;;;;;9.90;3.47;;;;;;;18.26;46.10;99171.25;5094560;28;20039;-85
2021/05/05 08:01:30;;;;;;;7.93;3.67;;;;;;;18.23;46.06;99155.38;5076753;28;20103;-85
2021/05/05 08:03:56;;;;;;;12.85;3.63;;;;;;;18.17;46.05;99150.69;5093973;28;20047;-76
2021/05/05 08:06:22;;;;;;;7.53;4.35;;;;;;;18.30;45.84;99160.97;5093632;28;20385;-76
2021/05/05 08:08:47;;;;;;;6.93;3.90;;;;;;;18.24;45.98;99164.34;5081524;28;20028;-75
2021/05/05 08:11:13;;;;;;;9.07;3.97;;;;;;;17.94;46.00;99101.06;5073549;28;20119;-74
2021/05/05 08:13:39;;;;;;;10.60;3.50;;;;;;;18.41;45.39;99146.28;5072970;28;20056;-77
2021/05/05 08:16:06;;;;;;;8.75;3.80;;;;;;;18.53;45.83;99144.94;5055673;28;20033;-76
2021/05/05 08:18:32;;;;;;;7.63;3.80;;;;;;;18.50;45.63;99147.97;5072703;28;20051;-82
2021/05/05 08:21:01;;;;;;;6.60;3.30;;;;;;;18.59;45.78;99139.69;5073706;28;20033;-81
2021/05/05 08:23:27;;;;;;;6.30;3.38;;;;;;;18.24;45.79;99080.69;5072804;28;20064;-74
2021/05/05 08:25:52;;;;;;;7.15;3.47;;;;;;;18.52;46.05;99132.44;5038533;28;20503;-75
2021/05/05 08:28:18;;;;;;;9.75;3.80;;;;;;;18.61;46.00;99131.41;5073592;28;20040;-77
2021/05/05 08:30:44;;;;;;;12.00;3.80;;;;;;;18.60;45.58;99097.31;5072952;28;20059;-76
2021/05/05 08:33:10;;;;;;;8.13;3.75;;;;;;;18.76;45.36;99123.50;5073183;28;20074;-77
2021/05/05 08:35:36;;;;;;;11.13;4.10;;;;;;;18.59;45.29;99112.69;5072607;28;20450;-76
2021/05/05 08:38:02;;;;;;;12.75;5.30;;;;;;;18.90;45.10;99121.94;5080857;28;20028;-75
2021/05/05 08:40:28;;;;;;;9.95;4.70;;;;;;;18.96;44.43;99114.00;5076680;28;20032;-80
2021/05/05 08:42:54;;;;;;;8.68;3.90;;;;;;;18.93;44.58;99114.34;5093820;28;20118;-84
2021/05/05 08:45:22;;;;;;;6.32;3.70;;;;;;;18.81;45.04;99111.16;5075050;28;20093;-80
2021/05/05 08:47:50;;;;;;;7.72;3.35;;;;;;;18.98;44.68;99105.72;5074954;28;20032;-78
2021/05/05 08:50:19;;;;;;;7.63;3.42;;;;;;;19.02;44.43;99090.84;5093198;28;20039;-76
2021/05/05 08:52:45;;;;;;;7.90;3.80;;;;;;;18.69;44.64;99049.56;5074728;28;20032;-77
2021/05/05 08:55:16;;;;;;;6.28;3.35;;;;;;;19.09;44.65;99086.41;5074478;28;20058;-75
2021/05/05 08:57:42;;;;;;;9.55;3.55;;;;;;;19.11;44.30;99084.41;5092717;28;20020;-75
2021/05/05 09:00:10;;;;;;;9.60;3.72;;;;;;;19.24;44.22;99098.19;5074725;28;20481;-79
2021/05/05 09:02:36;;;;;;;9.02;3.72;;;;;;;19.10;44.34;99040.28;5092323;28;20104;-76
2021/05/05 09:05:05;;;;;;;7.97;3.17;;;;;;;19.54;44.09;99090.28;5074369;28;20036;-79
2021/05/05 09:07:36;;;;;;;7.22;3.38;;;;;;;19.65;43.24;99081.78;5091990;28;20081;-79
2021/05/05 09:10:20;;;;;;;10.90;3.70;;;;;;;19.57;43.26;99062.88;5074636;28;20070;-75
2021/05/05 09:12:51;;;;;;;8.63;3.33;;;;;;;19.46;43.47;99069.50;5092660;28;20036;-77
2021/05/05 09:15:20;;;;;;;8.13;3.13;;;;;;;19.56;43.40;99050.38;5092522;28;20418;-76
2021/05/05 09:17:54;;;;;;;9.85;3.53;;;;;;;19.70;43.35;99063.16;5092232;28;20124;-81
2021/05/05 09:20:31;;;;;;;6.30;3.00;;;;;;;19.90;43.28;99063.53;5092774;28;20035;-73
2021/05/05 09:23:01;;;;;;;8.75;3.85;;;;;;;20.08;42.85;99065.94;5075494;28;20032;-70
2021/05/05 09:25:29;;;;;;;9.20;3.63;;;;;;;20.18;42.07;99061.09;5092445;28;20028;-79
2021/05/05 09:28:19;;;;;;;8.77;3.30;;;;;;;20.03;41.75;99052.91;5074458;28;20078;-72
2021/05/05 09:30:46;;;;;;;6.70;2.80;;;;;;;20.46;40.60;99059.53;5101199;28;20032;-78
2021/05/05 09:33:23;;;;;;;7.70;2.80;;;;;;;20.68;40.31;99049.63;5103905;28;20024;-76
2021/05/05 09:35:53;;;;;;;12.30;4.28;;;;;;;20.73;40.24;99049.06;5095047;28;20036;-77
2021/05/05 09:38:18;;;;;;;7.75;3.08;;;;;;;20.69;39.32;99026.09;5084227;28;20028;-77
2021/05/05 09:40:57;;;;;;;7.43;2.53;;;;;;;20.58;39.20;98998.44;5072012;28;20043;-74
2021/05/05 09:43:25;;;;;;;10.02;3.00;;;;;;;20.61;39.02;98996.38;5084674;28;20036;-76
2021/05/05 09:45:51;;;;;;;8.20;2.83;;;;;;;20.98;39.19;99036.91;5092350;28;20040;-75
2021/05/05 09:48:26;;;;;;;6.63;2.90;;;;;;;20.98;38.98;99004.38;5074289;28;20035;-72
2021/05/05 09:51:02;;;;;;;7.07;2.70;;;;;;;21.07;38.49;99030.38;5092134;28;20028;-76
2021/05/05 09:53:31;;;;;;;8.15;2.67;;;;;;;21.03;38.89;99007.34;5091929;28;20578;-75
2021/05/05 09:56:02;;;;;;;8.00;2.70;;;;;;;21.18;38.44;99014.63;5096017;28;20078;-73
2021/05/05 09:58:37;;;;;;;7.45;2.60;;;;;;;21.25;38.54;99018.28;5077847;28;20028;-75
2021/05/05 10:01:09;;;;;;;6.47;2.47;;;;;;;21.31;38.88;99017.53;5096434;28;20400;-76
2021/05/05 10:03:37;;;;;;;10.35;2.72;;;;;;;21.34;38.24;99014.47;5096076;28;20034;-75
2021/05/05 10:06:32;;;;;;;5.00;2.40;;;;;;;21.19;38.96;99005.47;5078073;28;20059;-74
2021/05/05 10:09:10;;;;;;;5.53;2.45;;;;;;;21.36;38.89;99004.25;5082656;28;20033;-74
2021/05/05 10:11:38;;;;;;;6.43;2.75;;;;;;;21.02;38.15;98940.63;5076435;28;20063;-74
2021/05/05 10:14:11;;;;;;;6.88;2.50;;;;;;;21.32;37.66;98994.78;5075199;28;20086;-74
2021/05/05 10:16:40;;;;;;;7.70;2.93;;;;;;;21.25;37.09;98970.31;5075571;28;20036;-74
2021/05/05 10:19:14;;;;;;;7.65;2.92;;;;;;;21.47;36.65;98987.47;5076863;28;20059;-71
2021/05/05 10:21:47;;;;;;;9.07;3.10;;;;;;;21.68;37.13;98989.34;5095641;28;20032;-75
2021/05/05 10:24:13;;;;;;;9.02;2.75;;;;;;;21.68;37.06;98992.91;5104474;28;20032;-72
2021/05/05 10:26:41;;;;;;;10.27;3.05;;;;;;;21.69;37.00;98981.00;5096306;28;20132;-71
2021/05/05 10:29:06;;;;;;;6.68;2.85;;;;;;;21.61;37.03;98999.28;5095887;28;20066;-73
2021/05/05 10:31:35;;;;;;;10.57;3.00;;;;;;;21.49;37.10;98979.97;5095178;28;20063;-71
2021/05/05 10:34:01;;;;;;;11.32;3.10;;;;;;;21.46;37.24;98993.94;5077527;28;20039;-76
2021/05/05 10:36:36;;;;;;;8.43;3.35;;;;;;;21.40;37.56;98981.97;5095300;28;20040;-78
2021/05/05 10:39:22;;;;;;;7.20;2.50;;;;;;;21.56;37.42;98988.19;5095446;28;20031;-77
2021/05/05 10:41:59;;;;;;;5.47;2.85;;;;;;;21.60;37.47;98987.59;5077802;28;20050;-75
2021/05/05 10:44:39;;;;;;;8.93;2.92;;;;;;;21.68;37.51;98990.19;5095217;28;20122;-77
2021/05/05 10:47:23;;;;;;;7.18;2.38;;;;;;;21.70;38.02;98998.97;5095333;28;20035;-72
2021/05/05 10:50:02;;;;;;;7.43;2.45;;;;;;;21.73;37.55;98996.91;5076914;28;20044;-72
2021/05/05 10:52:29;;;;;;;7.40;2.53;;;;;;;21.63;37.36;98986.38;5095110;28;20028;-74
2021/05/05 10:54:58;;;;;;;6.57;2.60;;;;;;;21.45;37.94;98991.41;5094549;28;20553;-72
2021/05/05 10:57:25;;;;;;;6.40;3.05;;;;;;;21.30;38.37;98964.31;5095338;28;20035;-77
2021/05/05 10:59:57;;;;;;;4.93;2.28;;;;;;;21.46;38.04;98974.09;5076761;28;20442;-78
2021/05/05 11:02:37;;;;;;;9.23;2.80;;;;;;;21.85;38.32;98979.91;5095000;28;20484;-82
2021/05/05 11:05:15;;;;;;;8.68;2.72;;;;;;;21.81;37.41;98969.63;5095097;28;20063;-76
2021/05/05 11:07:57;;;;;;;7.53;2.63;;;;;;;21.75;38.07;98984.00;5075678;28;20081;-77
2021/05/05 11:10:32;;;;;;;9.40;2.85;;;;;;;21.71;38.05;98978.97;5095101;28;20060;-78
2021/05/05 11:12:59;;;;;;;9.80;3.92;;;;;;;21.66;37.55;98965.13;5076692;28;20048;-74
2021/05/05 11:15:55;;;;;;;8.35;2.70;;;;;;;21.62;37.23;98955.69;5094776;28;20488;-70
2021/05/05 11:18:30;;;;;;;7.22;2.63;;;;;;;21.52;37.35;98936.19;5055715;28;20138;-77
2021/05/05 11:20:56;;;;;;;7.72;2.67;;;;;;;21.91;37.46;98945.72;5076420;28;20032;-72
2021/05/05 11:23:42;;;;;;;7.93;2.45;;;;;;;21.97;36.67;98948.47;5098025;28;20099;-73
2021/05/05 11:26:27;;;;;;;10.27;2.75;;;;;;;22.02;36.77;98938.91;5094379;28;20028;-78
2021/05/05 11:29:00;;;;;;;8.23;2.58;;;;;;;21.99;35.73;98910.25;5094578;28;20035;-79
2021/05/05 11:31:44;;;;;;;8.57;2.63;;;;;;;21.96;35.58;98919.66;5076828;28;20491;-80
2021/05/05 11:34:19;;;;;;;8.63;2.88;;;;;;;21.96;36.04;98926.94;5094329;28;20024;-78
2021/05/05 11:37:05;;;;;;;6.22;2.45;;;;;;;21.84;36.29;98939.38;5093883;28;20036;-78
2021/05/05 11:39:33;;;;;;;9.43;2.80;;;;;;;21.71;36.98;98908.41;5094125;28;20366;-83
2021/05/05 11:42:00;;;;;;;7.50;2.63;;;;;;;21.86;36.48;98935.44;5094480;28;20051;-75